sensor_id;sensor_type;location;lat;lon;timestamp;temperature;humidity
75022;SHT31;63583;49.976;20.182;2023-02-01T00:01:45;1.90;92.96
75022;SHT31;63583;49.976;20.182;2023-02-01T00:04:11;1.94;92.80
75022;SHT31;63583;49.976;20.182;2023-02-01T00:06:37;1.98;92.76
75022;SHT31;63583;49.976;20.182;2023-02-01T00:09:03;1.98;92.95
75022;SHT31;63583;49.976;20.182;2023-02-01T00:11:29;1.97;92.69
75022;SHT31;63583;49.976;20.182;2023-02-01T00:13:54;2.01;92.73
75022;SHT31;63583;49.976;20.182;2023-02-01T00:16:23;2.07;92.86
75022;SHT31;63583;49.976;20.182;2023-02-01T00:18:50;2.13;92.16
75022;SHT31;63583;49.976;20.182;2023-02-01T00:21:19;2.17;92.13
75022;SHT31;63583;49.976;20.182;2023-02-01T00:23:45;2.15;92.14
75022;SHT31;63583;49.976;20.182;2023-02-01T00:26:16;2.18;92.40
75022;SHT31;63583;49.976;20.182;2023-02-01T00:28:42;2.18;92.42
75022;SHT31;63583;49.976;20.182;2023-02-01T00:31:08;2.21;92.24
75022;SHT31;63583;49.976;20.182;2023-02-01T00:33:33;2.21;91.99
75022;SHT31;63583;49.976;20.182;2023-02-01T00:36:01;2.28;91.84
75022;SHT31;63583;49.976;20.182;2023-02-01T00:38:28;2.27;92.11
75022;SHT31;63583;49.976;20.182;2023-02-01T00:41:01;2.25;91.95
75022;SHT31;63583;49.976;20.182;2023-02-01T00:43:26;2.25;91.72
75022;SHT31;63583;49.976;20.182;2023-02-01T00:45:52;2.22;91.63
75022;SHT31;63583;49.976;20.182;2023-02-01T00:48:18;2.24;91.61
75022;SHT31;63583;49.976;20.182;2023-02-01T00:50:44;2.21;91.80
75022;SHT31;63583;49.976;20.182;2023-02-01T00:53:10;2.20;91.72
75022;SHT31;63583;49.976;20.182;2023-02-01T00:55:36;2.21;91.77
75022;SHT31;63583;49.976;20.182;2023-02-01T00:58:03;2.29;91.25
75022;SHT31;63583;49.976;20.182;2023-02-01T01:00:34;2.20;91.64
75022;SHT31;63583;49.976;20.182;2023-02-01T01:02:59;2.29;90.98
75022;SHT31;63583;49.976;20.182;2023-02-01T01:05:25;2.27;90.71
75022;SHT31;63583;49.976;20.182;2023-02-01T01:07:53;2.29;90.53
75022;SHT31;63583;49.976;20.182;2023-02-01T01:10:19;2.24;90.65
75022;SHT31;63583;49.976;20.182;2023-02-01T01:12:44;2.25;90.47
75022;SHT31;63583;49.976;20.182;2023-02-01T01:15:10;2.31;90.10
75022;SHT31;63583;49.976;20.182;2023-02-01T01:17:36;2.29;89.71
75022;SHT31;63583;49.976;20.182;2023-02-01T01:20:03;2.41;89.23
75022;SHT31;63583;49.976;20.182;2023-02-01T01:22:28;2.48;88.42
75022;SHT31;63583;49.976;20.182;2023-02-01T01:24:54;2.58;87.67
75022;SHT31;63583;49.976;20.182;2023-02-01T01:27:20;2.63;87.37
75022;SHT31;63583;49.976;20.182;2023-02-01T01:29:49;2.67;87.05
75022;SHT31;63583;49.976;20.182;2023-02-01T01:32:15;2.75;86.43
75022;SHT31;63583;49.976;20.182;2023-02-01T01:34:41;2.92;85.52
75022;SHT31;63583;49.976;20.182;2023-02-01T01:37:06;2.96;85.40
75022;SHT31;63583;49.976;20.182;2023-02-01T01:39:32;3.01;85.17
75022;SHT31;63583;49.976;20.182;2023-02-01T01:41:58;2.99;85.82
75022;SHT31;63583;49.976;20.182;2023-02-01T01:47:20;2.82;87.77
75022;SHT31;63583;49.976;20.182;2023-02-01T01:49:46;2.49;89.77
75022;SHT31;63583;49.976;20.182;2023-02-01T01:52:12;2.41;90.65
75022;SHT31;63583;49.976;20.182;2023-02-01T01:54:42;2.21;91.38
75022;SHT31;63583;49.976;20.182;2023-02-01T01:57:16;2.08;92.05
75022;SHT31;63583;49.976;20.182;2023-02-01T01:59:47;1.81;93.50
75022;SHT31;63583;49.976;20.182;2023-02-01T02:02:14;1.73;94.18
75022;SHT31;63583;49.976;20.182;2023-02-01T02:04:39;1.67;94.14
75022;SHT31;63583;49.976;20.182;2023-02-01T02:07:10;1.74;94.30
75022;SHT31;63583;49.976;20.182;2023-02-01T02:09:37;1.81;92.71
75022;SHT31;63583;49.976;20.182;2023-02-01T02:12:05;1.96;92.23
75022;SHT31;63583;49.976;20.182;2023-02-01T02:14:31;2.00;92.51
75022;SHT31;63583;49.976;20.182;2023-02-01T02:28:27;2.13;89.65
75022;SHT31;63583;49.976;20.182;2023-02-01T02:33:52;2.13;89.05
75022;SHT31;63583;49.976;20.182;2023-02-01T02:41:58;2.13;88.78
75022;SHT31;63583;49.976;20.182;2023-02-01T02:50:38;2.00;89.00
75022;SHT31;63583;49.976;20.182;2023-02-01T02:56:13;2.04;88.04
75022;SHT31;63583;49.976;20.182;2023-02-01T02:58:58;2.03;87.82
75022;SHT31;63583;49.976;20.182;2023-02-01T03:01:43;2.00;87.77
75022;SHT31;63583;49.976;20.182;2023-02-01T03:04:27;1.96;87.45
75022;SHT31;63583;49.976;20.182;2023-02-01T03:06:53;2.00;87.24
75022;SHT31;63583;49.976;20.182;2023-02-01T03:09:24;2.06;87.14
75022;SHT31;63583;49.976;20.182;2023-02-01T03:11:58;1.91;87.40
75022;SHT31;63583;49.976;20.182;2023-02-01T03:14:47;1.93;87.50
75022;SHT31;63583;49.976;20.182;2023-02-01T03:17:19;1.77;88.37
75022;SHT31;63583;49.976;20.182;2023-02-01T03:19:48;1.79;88.58
75022;SHT31;63583;49.976;20.182;2023-02-01T03:22:27;1.80;88.80
75022;SHT31;63583;49.976;20.182;2023-02-01T03:24:55;1.73;89.05
75022;SHT31;63583;49.976;20.182;2023-02-01T03:27:30;1.77;89.09
75022;SHT31;63583;49.976;20.182;2023-02-01T03:30:11;1.71;89.45
75022;SHT31;63583;49.976;20.182;2023-02-01T03:32:44;1.67;89.45
75022;SHT31;63583;49.976;20.182;2023-02-01T03:35:30;1.69;89.89
75022;SHT31;63583;49.976;20.182;2023-02-01T03:38:06;1.66;89.85
75022;SHT31;63583;49.976;20.182;2023-02-01T03:40:35;1.64;89.98
75022;SHT31;63583;49.976;20.182;2023-02-01T03:43:04;1.58;90.48
75022;SHT31;63583;49.976;20.182;2023-02-01T03:45:43;1.59;90.73
75022;SHT31;63583;49.976;20.182;2023-02-01T03:48:11;1.70;90.41
75022;SHT31;63583;49.976;20.182;2023-02-01T03:50:38;1.56;91.04
75022;SHT31;63583;49.976;20.182;2023-02-01T03:53:12;1.51;91.65
75022;SHT31;63583;49.976;20.182;2023-02-01T03:55:40;1.55;91.87
75022;SHT31;63583;49.976;20.182;2023-02-01T03:58:12;1.58;91.67
75022;SHT31;63583;49.976;20.182;2023-02-01T04:00:39;1.55;92.06
75022;SHT31;63583;49.976;20.182;2023-02-01T04:03:06;1.51;92.02
75022;SHT31;63583;49.976;20.182;2023-02-01T04:05:33;1.48;92.21
75022;SHT31;63583;49.976;20.182;2023-02-01T04:07:58;1.58;92.02
75022;SHT31;63583;49.976;20.182;2023-02-01T04:10:25;1.51;91.92
75022;SHT31;63583;49.976;20.182;2023-02-01T04:12:50;1.53;91.89
75022;SHT31;63583;49.976;20.182;2023-02-01T04:15:16;1.53;91.48
75022;SHT31;63583;49.976;20.182;2023-02-01T04:17:42;1.56;91.31
75022;SHT31;63583;49.976;20.182;2023-02-01T04:20:08;1.52;91.25
75022;SHT31;63583;49.976;20.182;2023-02-01T04:22:34;1.52;91.14
75022;SHT31;63583;49.976;20.182;2023-02-01T04:25:00;1.55;91.04
75022;SHT31;63583;49.976;20.182;2023-02-01T04:27:26;1.56;91.04
75022;SHT31;63583;49.976;20.182;2023-02-01T04:29:52;1.60;90.74
75022;SHT31;63583;49.976;20.182;2023-02-01T04:32:18;1.46;91.03
75022;SHT31;63583;49.976;20.182;2023-02-01T04:34:45;1.52;90.84
75022;SHT31;63583;49.976;20.182;2023-02-01T04:37:11;1.58;90.58
75022;SHT31;63583;49.976;20.182;2023-02-01T04:39:37;1.58;90.34
75022;SHT31;63583;49.976;20.182;2023-02-01T04:42:03;1.56;90.39
75022;SHT31;63583;49.976;20.182;2023-02-01T04:44:29;1.58;90.49
75022;SHT31;63583;49.976;20.182;2023-02-01T04:46:54;1.55;90.39
75022;SHT31;63583;49.976;20.182;2023-02-01T04:49:20;1.67;90.07
75022;SHT31;63583;49.976;20.182;2023-02-01T04:51:46;1.66;90.13
75022;SHT31;63583;49.976;20.182;2023-02-01T04:54:12;1.59;90.31
75022;SHT31;63583;49.976;20.182;2023-02-01T04:56:38;1.62;90.38
75022;SHT31;63583;49.976;20.182;2023-02-01T04:59:04;1.66;90.11
75022;SHT31;63583;49.976;20.182;2023-02-01T05:01:30;1.73;89.79
75022;SHT31;63583;49.976;20.182;2023-02-01T05:03:56;1.81;89.33
75022;SHT31;63583;49.976;20.182;2023-02-01T05:06:22;1.70;89.75
75022;SHT31;63583;49.976;20.182;2023-02-01T05:08:48;1.67;89.72
75022;SHT31;63583;49.976;20.182;2023-02-01T05:11:14;1.64;90.06
75022;SHT31;63583;49.976;20.182;2023-02-01T05:13:59;1.70;89.52
75022;SHT31;63583;49.976;20.182;2023-02-01T05:16:25;1.66;89.77
75022;SHT31;63583;49.976;20.182;2023-02-01T05:18:51;1.70;89.71
75022;SHT31;63583;49.976;20.182;2023-02-01T05:21:17;1.66;89.95
75022;SHT31;63583;49.976;20.182;2023-02-01T05:23:43;1.69;89.63
75022;SHT31;63583;49.976;20.182;2023-02-01T05:26:27;1.67;90.00
75022;SHT31;63583;49.976;20.182;2023-02-01T05:28:53;1.69;90.05
75022;SHT31;63583;49.976;20.182;2023-02-01T05:31:19;1.52;90.83
75022;SHT31;63583;49.976;20.182;2023-02-01T05:33:45;1.55;90.93
75022;SHT31;63583;49.976;20.182;2023-02-01T05:36:10;1.63;90.82
75022;SHT31;63583;49.976;20.182;2023-02-01T05:38:36;1.62;90.68
75022;SHT31;63583;49.976;20.182;2023-02-01T05:41:02;1.62;90.44
75022;SHT31;63583;49.976;20.182;2023-02-01T05:43:28;1.63;90.52
75022;SHT31;63583;49.976;20.182;2023-02-01T05:45:53;1.60;90.39
75022;SHT31;63583;49.976;20.182;2023-02-01T05:48:19;1.64;90.49
75022;SHT31;63583;49.976;20.182;2023-02-01T05:50:45;1.62;90.20
75022;SHT31;63583;49.976;20.182;2023-02-01T05:53:11;1.73;89.99
75022;SHT31;63583;49.976;20.182;2023-02-01T05:55:37;1.74;89.49
75022;SHT31;63583;49.976;20.182;2023-02-01T05:58:04;1.69;89.97
75022;SHT31;63583;49.976;20.182;2023-02-01T06:00:29;1.73;89.77
75022;SHT31;63583;49.976;20.182;2023-02-01T06:02:55;1.87;88.47
75022;SHT31;63583;49.976;20.182;2023-02-01T06:05:21;1.86;88.22
75022;SHT31;63583;49.976;20.182;2023-02-01T06:07:47;1.91;88.06
75022;SHT31;63583;49.976;20.182;2023-02-01T06:10:16;1.94;88.31
75022;SHT31;63583;49.976;20.182;2023-02-01T06:12:42;1.97;87.79
75022;SHT31;63583;49.976;20.182;2023-02-01T06:15:08;1.96;87.85
75022;SHT31;63583;49.976;20.182;2023-02-01T06:17:34;1.91;88.03
75022;SHT31;63583;49.976;20.182;2023-02-01T06:19:59;1.93;88.40
75022;SHT31;63583;49.976;20.182;2023-02-01T06:22:25;2.01;87.62
75022;SHT31;63583;49.976;20.182;2023-02-01T06:24:51;2.00;87.45
75022;SHT31;63583;49.976;20.182;2023-02-01T06:27:17;1.91;87.65
75022;SHT31;63583;49.976;20.182;2023-02-01T06:29:42;2.00;86.74
75022;SHT31;63583;49.976;20.182;2023-02-01T06:32:08;2.04;86.48
75022;SHT31;63583;49.976;20.182;2023-02-01T06:34:34;2.14;84.99
75022;SHT31;63583;49.976;20.182;2023-02-01T06:37:00;2.18;84.70
75022;SHT31;63583;49.976;20.182;2023-02-01T06:39:25;2.37;82.58
75022;SHT31;63583;49.976;20.182;2023-02-01T06:41:53;2.44;82.41
75022;SHT31;63583;49.976;20.182;2023-02-01T06:44:18;2.45;82.01
75022;SHT31;63583;49.976;20.182;2023-02-01T06:46:44;2.50;81.52
75022;SHT31;63583;49.976;20.182;2023-02-01T06:49:10;2.66;79.87
75022;SHT31;63583;49.976;20.182;2023-02-01T06:51:36;2.63;79.93
75022;SHT31;63583;49.976;20.182;2023-02-01T06:54:01;2.69;79.54
75022;SHT31;63583;49.976;20.182;2023-02-01T06:56:27;2.73;79.84
75022;SHT31;63583;49.976;20.182;2023-02-01T06:58:53;2.75;78.42
75022;SHT31;63583;49.976;20.182;2023-02-01T07:01:19;2.83;77.60
75022;SHT31;63583;49.976;20.182;2023-02-01T07:03:49;2.99;76.35
75022;SHT31;63583;49.976;20.182;2023-02-01T07:06:17;3.00;76.12
75022;SHT31;63583;49.976;20.182;2023-02-01T07:08:43;3.07;76.06
75022;SHT31;63583;49.976;20.182;2023-02-01T07:11:11;3.00;76.31
75022;SHT31;63583;49.976;20.182;2023-02-01T07:13:37;3.04;76.25
75022;SHT31;63583;49.976;20.182;2023-02-01T07:16:05;3.04;76.98
75022;SHT31;63583;49.976;20.182;2023-02-01T07:18:32;3.08;76.12
75022;SHT31;63583;49.976;20.182;2023-02-01T07:20:59;3.07;76.26
75022;SHT31;63583;49.976;20.182;2023-02-01T07:23:25;2.99;76.97
75022;SHT31;63583;49.976;20.182;2023-02-01T07:25:56;2.97;77.13
75022;SHT31;63583;49.976;20.182;2023-02-01T07:28:22;2.93;77.25
75022;SHT31;63583;49.976;20.182;2023-02-01T07:30:48;3.01;77.10
75022;SHT31;63583;49.976;20.182;2023-02-01T07:33:23;3.06;76.88
75022;SHT31;63583;49.976;20.182;2023-02-01T07:35:50;3.07;76.48
75022;SHT31;63583;49.976;20.182;2023-02-01T07:38:16;3.08;76.93
75022;SHT31;63583;49.976;20.182;2023-02-01T07:40:42;3.10;77.10
75022;SHT31;63583;49.976;20.182;2023-02-01T07:43:08;3.11;76.48
75022;SHT31;63583;49.976;20.182;2023-02-01T07:45:35;3.00;77.20
75022;SHT31;63583;49.976;20.182;2023-02-01T07:48:02;3.13;76.92
75022;SHT31;63583;49.976;20.182;2023-02-01T07:50:29;3.10;76.51
75022;SHT31;63583;49.976;20.182;2023-02-01T07:52:54;3.14;76.49
75022;SHT31;63583;49.976;20.182;2023-02-01T07:55:21;3.23;76.36
75022;SHT31;63583;49.976;20.182;2023-02-01T07:57:46;3.21;75.97
75022;SHT31;63583;49.976;20.182;2023-02-01T08:00:13;3.23;76.13
75022;SHT31;63583;49.976;20.182;2023-02-01T08:02:58;3.13;76.68
75022;SHT31;63583;49.976;20.182;2023-02-01T08:05:24;3.13;76.48
75022;SHT31;63583;49.976;20.182;2023-02-01T08:07:50;3.10;77.35
75022;SHT31;63583;49.976;20.182;2023-02-01T08:10:17;3.04;77.29
75022;SHT31;63583;49.976;20.182;2023-02-01T08:12:42;3.07;76.46
75022;SHT31;63583;49.976;20.182;2023-02-01T08:15:09;3.17;76.24
75022;SHT31;63583;49.976;20.182;2023-02-01T08:17:34;3.18;76.41
75022;SHT31;63583;49.976;20.182;2023-02-01T08:20:00;3.14;76.98
75022;SHT31;63583;49.976;20.182;2023-02-01T08:22:26;3.15;75.93
75022;SHT31;63583;49.976;20.182;2023-02-01T08:24:56;3.25;75.24
75022;SHT31;63583;49.976;20.182;2023-02-01T08:27:27;3.24;75.66
75022;SHT31;63583;49.976;20.182;2023-02-01T08:29:53;3.23;75.96
75022;SHT31;63583;49.976;20.182;2023-02-01T08:32:19;3.25;75.47
75022;SHT31;63583;49.976;20.182;2023-02-01T08:34:46;3.18;75.67
75022;SHT31;63583;49.976;20.182;2023-02-01T08:37:14;3.30;75.47
75022;SHT31;63583;49.976;20.182;2023-02-01T08:39:43;3.35;74.31
75022;SHT31;63583;49.976;20.182;2023-02-01T08:42:10;3.38;74.24
75022;SHT31;63583;49.976;20.182;2023-02-01T08:44:55;3.55;72.96
75022;SHT31;63583;49.976;20.182;2023-02-01T08:47:21;3.44;73.98
75022;SHT31;63583;49.976;20.182;2023-02-01T08:49:47;3.52;73.16
75022;SHT31;63583;49.976;20.182;2023-02-01T08:52:12;3.55;72.48
75022;SHT31;63583;49.976;20.182;2023-02-01T08:54:38;3.55;72.98
75022;SHT31;63583;49.976;20.182;2023-02-01T08:57:06;3.55;72.74
75022;SHT31;63583;49.976;20.182;2023-02-01T08:59:32;3.68;73.11
75022;SHT31;63583;49.976;20.182;2023-02-01T09:01:58;3.71;72.49
75022;SHT31;63583;49.976;20.182;2023-02-01T09:04:25;3.62;72.37
75022;SHT31;63583;49.976;20.182;2023-02-01T09:06:50;3.68;72.20
75022;SHT31;63583;49.976;20.182;2023-02-01T09:09:16;3.71;71.35
75022;SHT31;63583;49.976;20.182;2023-02-01T09:11:42;3.76;71.90
75022;SHT31;63583;49.976;20.182;2023-02-01T09:14:07;3.79;71.79
75022;SHT31;63583;49.976;20.182;2023-02-01T09:16:33;3.82;71.42
75022;SHT31;63583;49.976;20.182;2023-02-01T09:18:59;3.89;71.53
75022;SHT31;63583;49.976;20.182;2023-02-01T09:21:24;3.87;72.00
75022;SHT31;63583;49.976;20.182;2023-02-01T09:23:51;3.93;71.87
75022;SHT31;63583;49.976;20.182;2023-02-01T09:26:17;3.93;71.46
75022;SHT31;63583;49.976;20.182;2023-02-01T09:28:43;4.09;71.28
75022;SHT31;63583;49.976;20.182;2023-02-01T09:31:08;4.03;71.43
75022;SHT31;63583;49.976;20.182;2023-02-01T09:33:35;3.96;71.93
75022;SHT31;63583;49.976;20.182;2023-02-01T09:36:03;3.94;72.26
75022;SHT31;63583;49.976;20.182;2023-02-01T09:38:30;4.04;72.50
75022;SHT31;63583;49.976;20.182;2023-02-01T09:40:57;4.10;72.01
75022;SHT31;63583;49.976;20.182;2023-02-01T09:43:48;4.22;71.33
75022;SHT31;63583;49.976;20.182;2023-02-01T09:46:24;4.31;70.97
75022;SHT31;63583;49.976;20.182;2023-02-01T09:48:56;4.49;70.13
75022;SHT31;63583;49.976;20.182;2023-02-01T09:51:27;4.55;70.29
75022;SHT31;63583;49.976;20.182;2023-02-01T09:54:00;4.44;70.35
75022;SHT31;63583;49.976;20.182;2023-02-01T09:56:38;4.42;71.01
75022;SHT31;63583;49.976;20.182;2023-02-01T10:01:53;4.41;70.04
75022;SHT31;63583;49.976;20.182;2023-02-01T10:04:19;4.41;70.51
75022;SHT31;63583;49.976;20.182;2023-02-01T10:06:56;4.47;69.79
75022;SHT31;63583;49.976;20.182;2023-02-01T10:09:53;4.47;70.10
75022;SHT31;63583;49.976;20.182;2023-02-01T10:12:54;4.42;70.79
75022;SHT31;63583;49.976;20.182;2023-02-01T10:15:34;4.58;70.70
75022;SHT31;63583;49.976;20.182;2023-02-01T10:21:02;4.57;71.35
75022;SHT31;63583;49.976;20.182;2023-02-01T10:27:01;4.41;73.39
75022;SHT31;63583;49.976;20.182;2023-02-01T10:29:33;4.47;73.35
75022;SHT31;63583;49.976;20.182;2023-02-01T10:32:00;4.45;72.89
75022;SHT31;63583;49.976;20.182;2023-02-01T10:34:31;4.34;72.83
75022;SHT31;63583;49.976;20.182;2023-02-01T10:37:20;4.34;74.32
75022;SHT31;63583;49.976;20.182;2023-02-01T10:39:49;4.36;74.53
75022;SHT31;63583;49.976;20.182;2023-02-01T10:42:18;4.27;75.01
75022;SHT31;63583;49.976;20.182;2023-02-01T10:44:45;4.30;75.54
75022;SHT31;63583;49.976;20.182;2023-02-01T10:47:14;4.09;76.86
75022;SHT31;63583;49.976;20.182;2023-02-01T10:52:53;4.11;76.14
75022;SHT31;63583;49.976;20.182;2023-02-01T10:58:03;4.03;77.73
75022;SHT31;63583;49.976;20.182;2023-02-01T11:00:44;3.93;78.15
75022;SHT31;63583;49.976;20.182;2023-02-01T11:03:30;3.86;78.66
75022;SHT31;63583;49.976;20.182;2023-02-01T11:05:57;3.87;78.81
75022;SHT31;63583;49.976;20.182;2023-02-01T11:08:23;3.69;79.50
75022;SHT31;63583;49.976;20.182;2023-02-01T11:10:58;3.75;79.35
75022;SHT31;63583;49.976;20.182;2023-02-01T11:13:31;3.72;79.80
75022;SHT31;63583;49.976;20.182;2023-02-01T11:15:59;3.76;79.91
75022;SHT31;63583;49.976;20.182;2023-02-01T11:18:29;3.79;79.24
75022;SHT31;63583;49.976;20.182;2023-02-01T11:20:55;3.78;79.64
75022;SHT31;63583;49.976;20.182;2023-02-01T11:23:23;3.83;79.39
75022;SHT31;63583;49.976;20.182;2023-02-01T11:25:51;3.87;79.16
75022;SHT31;63583;49.976;20.182;2023-02-01T11:28:21;3.87;79.15
75022;SHT31;63583;49.976;20.182;2023-02-01T11:30:47;3.92;78.77
75022;SHT31;63583;49.976;20.182;2023-02-01T11:33:16;3.93;78.91
75022;SHT31;63583;49.976;20.182;2023-02-01T11:35:43;3.89;78.95
75022;SHT31;63583;49.976;20.182;2023-02-01T11:38:28;3.86;79.10
75022;SHT31;63583;49.976;20.182;2023-02-01T11:40:54;3.85;79.05
75022;SHT31;63583;49.976;20.182;2023-02-01T11:43:26;3.87;79.29
75022;SHT31;63583;49.976;20.182;2023-02-01T11:46:00;3.94;79.03
75022;SHT31;63583;49.976;20.182;2023-02-01T11:48:32;3.89;78.81
75022;SHT31;63583;49.976;20.182;2023-02-01T11:57:46;3.94;79.13
75022;SHT31;63583;49.976;20.182;2023-02-01T12:05:40;3.94;79.08
75022;SHT31;63583;49.976;20.182;2023-02-01T12:08:21;3.83;79.62
75022;SHT31;63583;49.976;20.182;2023-02-01T12:20:32;3.82;81.54
75022;SHT31;63583;49.976;20.182;2023-02-01T12:39:48;3.99;81.07
75022;SHT31;63583;49.976;20.182;2023-02-01T12:42:18;4.14;80.08
75022;SHT31;63583;49.976;20.182;2023-02-01T12:44:50;4.22;79.34
75022;SHT31;63583;49.976;20.182;2023-02-01T12:47:39;4.28;78.96
75022;SHT31;63583;49.976;20.182;2023-02-01T12:50:28;4.25;78.42
75022;SHT31;63583;49.976;20.182;2023-02-01T12:55:53;4.16;78.73
75022;SHT31;63583;49.976;20.182;2023-02-01T12:58:38;4.11;78.70
75022;SHT31;63583;49.976;20.182;2023-02-01T13:01:13;4.01;79.28
75022;SHT31;63583;49.976;20.182;2023-02-01T13:03:55;4.01;79.58
75022;SHT31;63583;49.976;20.182;2023-02-01T13:09:00;3.89;81.64
75022;SHT31;63583;49.976;20.182;2023-02-01T13:11:31;3.79;82.22
75022;SHT31;63583;49.976;20.182;2023-02-01T13:14:13;3.80;81.79
75022;SHT31;63583;49.976;20.182;2023-02-01T13:16:44;3.72;81.71
75022;SHT31;63583;49.976;20.182;2023-02-01T13:19:53;3.72;81.10
75022;SHT31;63583;49.976;20.182;2023-02-01T13:22:08;3.75;81.23
75022;SHT31;63583;49.976;20.182;2023-02-01T13:24:43;3.83;79.28
75022;SHT31;63583;49.976;20.182;2023-02-01T13:27:15;3.82;80.01
75022;SHT31;63583;49.976;20.182;2023-02-01T13:29:48;3.87;78.93
75022;SHT31;63583;49.976;20.182;2023-02-01T13:37:48;3.96;78.49
75022;SHT31;63583;49.976;20.182;2023-02-01T13:43:21;4.00;77.77
75022;SHT31;63583;49.976;20.182;2023-02-01T13:45:51;4.07;77.70
75022;SHT31;63583;49.976;20.182;2023-02-01T13:48:23;4.03;77.93
75022;SHT31;63583;49.976;20.182;2023-02-01T13:50:53;4.09;77.59
75022;SHT31;63583;49.976;20.182;2023-02-01T13:53:29;3.96;77.66
75022;SHT31;63583;49.976;20.182;2023-02-01T13:56:18;3.99;77.88
75022;SHT31;63583;49.976;20.182;2023-02-01T13:58:47;3.97;77.63
75022;SHT31;63583;49.976;20.182;2023-02-01T14:03:55;3.92;77.71
75022;SHT31;63583;49.976;20.182;2023-02-01T14:09:13;3.85;78.55
75022;SHT31;63583;49.976;20.182;2023-02-01T14:11:44;3.80;78.12
75022;SHT31;63583;49.976;20.182;2023-02-01T14:19:34;3.85;77.67
75022;SHT31;63583;49.976;20.182;2023-02-01T14:24:54;3.82;77.83
75022;SHT31;63583;49.976;20.182;2023-02-01T14:27:29;3.87;78.27
75022;SHT31;63583;49.976;20.182;2023-02-01T14:29:59;3.92;77.97
75022;SHT31;63583;49.976;20.182;2023-02-01T14:32:30;3.86;77.99
75022;SHT31;63583;49.976;20.182;2023-02-01T14:35:00;3.94;77.49
75022;SHT31;63583;49.976;20.182;2023-02-01T14:37:29;3.92;77.48
75022;SHT31;63583;49.976;20.182;2023-02-01T14:47:45;3.85;77.15
75022;SHT31;63583;49.976;20.182;2023-02-01T14:55:43;3.96;77.11
75022;SHT31;63583;49.976;20.182;2023-02-01T15:01:03;3.78;78.31
75022;SHT31;63583;49.976;20.182;2023-02-01T15:03:50;3.68;79.28
75022;SHT31;63583;49.976;20.182;2023-02-01T15:06:31;3.66;79.17
75022;SHT31;63583;49.976;20.182;2023-02-01T15:09:02;3.56;80.08
75022;SHT31;63583;49.976;20.182;2023-02-01T15:11:28;3.62;80.59
75022;SHT31;63583;49.976;20.182;2023-02-01T15:13:54;3.54;81.27
75022;SHT31;63583;49.976;20.182;2023-02-01T15:16:24;3.42;82.07
75022;SHT31;63583;49.976;20.182;2023-02-01T15:18:58;3.36;82.75
75022;SHT31;63583;49.976;20.182;2023-02-01T15:21:42;3.27;83.37
75022;SHT31;63583;49.976;20.182;2023-02-01T15:24:22;3.38;83.38
75022;SHT31;63583;49.976;20.182;2023-02-01T15:26:49;3.27;84.63
75022;SHT31;63583;49.976;20.182;2023-02-01T15:29:15;3.08;85.86
75022;SHT31;63583;49.976;20.182;2023-02-01T15:31:51;2.93;87.15
75022;SHT31;63583;49.976;20.182;2023-02-01T15:34:19;2.89;87.62
75022;SHT31;63583;49.976;20.182;2023-02-01T15:36:45;2.80;88.20
75022;SHT31;63583;49.976;20.182;2023-02-01T15:39:31;2.77;89.06
75022;SHT31;63583;49.976;20.182;2023-02-01T15:42:17;2.59;89.64
75022;SHT31;63583;49.976;20.182;2023-02-01T15:44:45;2.62;90.03
75022;SHT31;63583;49.976;20.182;2023-02-01T15:47:19;2.53;90.33
75022;SHT31;63583;49.976;20.182;2023-02-01T15:49:47;2.48;90.71
75022;SHT31;63583;49.976;20.182;2023-02-01T15:52:31;2.44;90.62
75022;SHT31;63583;49.976;20.182;2023-02-01T15:55:00;2.34;91.54
75022;SHT31;63583;49.976;20.182;2023-02-01T15:57:33;2.35;91.22
75022;SHT31;63583;49.976;20.182;2023-02-01T16:00:05;2.39;91.66
75022;SHT31;63583;49.976;20.182;2023-02-01T16:02:41;2.46;91.18
75022;SHT31;63583;49.976;20.182;2023-02-01T16:08:04;2.29;91.84
75022;SHT31;63583;49.976;20.182;2023-02-01T16:10:31;2.34;91.18
75022;SHT31;63583;49.976;20.182;2023-02-01T16:12:57;2.41;91.25
75022;SHT31;63583;49.976;20.182;2023-02-01T16:15:26;2.45;91.20
75022;SHT31;63583;49.976;20.182;2023-02-01T16:17:55;2.49;90.88
75022;SHT31;63583;49.976;20.182;2023-02-01T16:20:21;2.48;90.38
75022;SHT31;63583;49.976;20.182;2023-02-01T16:22:47;2.58;90.10
75022;SHT31;63583;49.976;20.182;2023-02-01T16:25:12;2.58;89.52
75022;SHT31;63583;49.976;20.182;2023-02-01T16:27:38;2.56;89.67
75022;SHT31;63583;49.976;20.182;2023-02-01T16:30:04;2.59;89.73
75022;SHT31;63583;49.976;20.182;2023-02-01T16:32:30;2.63;89.17
75022;SHT31;63583;49.976;20.182;2023-02-01T16:34:56;2.67;88.80
75022;SHT31;63583;49.976;20.182;2023-02-01T16:37:24;2.66;88.44
75022;SHT31;63583;49.976;20.182;2023-02-01T16:39:51;2.62;88.65
75022;SHT31;63583;49.976;20.182;2023-02-01T16:42:17;2.67;88.61
75022;SHT31;63583;49.976;20.182;2023-02-01T16:44:42;2.71;88.27
75022;SHT31;63583;49.976;20.182;2023-02-01T16:47:16;2.72;87.99
75022;SHT31;63583;49.976;20.182;2023-02-01T16:49:42;2.75;88.21
75022;SHT31;63583;49.976;20.182;2023-02-01T16:52:23;2.76;87.20
75022;SHT31;63583;49.976;20.182;2023-02-01T16:54:49;2.72;87.85
75022;SHT31;63583;49.976;20.182;2023-02-01T16:57:17;2.73;87.93
75022;SHT31;63583;49.976;20.182;2023-02-01T16:59:43;2.71;88.31
75022;SHT31;63583;49.976;20.182;2023-02-01T17:02:15;2.69;88.61
75022;SHT31;63583;49.976;20.182;2023-02-01T17:04:41;2.75;88.58
75022;SHT31;63583;49.976;20.182;2023-02-01T17:07:12;2.72;89.36
75022;SHT31;63583;49.976;20.182;2023-02-01T17:09:38;2.67;90.02
75022;SHT31;63583;49.976;20.182;2023-02-01T17:12:05;2.44;90.72
75022;SHT31;63583;49.976;20.182;2023-02-01T17:14:33;2.35;91.64
75022;SHT31;63583;49.976;20.182;2023-02-01T17:17:01;2.34;91.79
75022;SHT31;63583;49.976;20.182;2023-02-01T17:19:27;2.38;91.50
75022;SHT31;63583;49.976;20.182;2023-02-01T17:21:55;2.42;91.44
75022;SHT31;63583;49.976;20.182;2023-02-01T17:24:29;2.52;91.31
75022;SHT31;63583;49.976;20.182;2023-02-01T17:26:55;2.46;91.09
75022;SHT31;63583;49.976;20.182;2023-02-01T17:29:21;2.52;91.26
75022;SHT31;63583;49.976;20.182;2023-02-01T17:31:50;2.58;90.87
75022;SHT31;63583;49.976;20.182;2023-02-01T17:34:17;2.56;91.43
75022;SHT31;63583;49.976;20.182;2023-02-01T17:36:45;2.55;90.70
75022;SHT31;63583;49.976;20.182;2023-02-01T17:39:13;2.63;90.00
75022;SHT31;63583;49.976;20.182;2023-02-01T17:41:59;2.66;89.76
75022;SHT31;63583;49.976;20.182;2023-02-01T17:44:25;2.67;89.73
75022;SHT31;63583;49.976;20.182;2023-02-01T17:46:51;2.73;89.23
75022;SHT31;63583;49.976;20.182;2023-02-01T17:49:17;2.59;89.81
75022;SHT31;63583;49.976;20.182;2023-02-01T17:51:43;2.66;90.20
75022;SHT31;63583;49.976;20.182;2023-02-01T17:54:12;2.48;90.92
75022;SHT31;63583;49.976;20.182;2023-02-01T17:56:38;2.32;91.48